sensor_id;sensor_type;location;lat;lon;timestamp;P1;durP1;ratioP1;P2;durP2;ratioP2
35462;SDS011;21578;47.892;9.970;2023-06-22T00:02:10;10.27;;;4.27;;
35462;SDS011;21578;47.892;9.970;2023-06-22T00:06:57;8.60;;;3.57;;
35462;SDS011;21578;47.892;9.970;2023-06-22T00:11:45;9.70;;;4.40;;
35462;SDS011;21578;47.892;9.970;2023-06-22T00:16:32;7.57;;;4.30;;
35462;SDS011;21578;47.892;9.970;2023-06-22T00:21:27;8.50;;;4.50;;
35462;SDS011;21578;47.892;9.970;2023-06-22T00:26:14;7.87;;;4.57;;
35462;SDS011;21578;47.892;9.970;2023-06-22T00:31:03;9.13;;;4.13;;
35462;SDS011;21578;47.892;9.970;2023-06-22T00:35:50;11.63;;;4.70;;
35462;SDS011;21578;47.892;9.970;2023-06-22T00:40:41;7.73;;;4.63;;
35462;SDS011;21578;47.892;9.970;2023-06-22T00:45:27;10.03;;;4.90;;
35462;SDS011;21578;47.892;9.970;2023-06-22T00:50:18;9.40;;;4.47;;
35462;SDS011;21578;47.892;9.970;2023-06-22T00:55:07;6.47;;;4.60;;
35462;SDS011;21578;47.892;9.970;2023-06-22T00:59:54;8.43;;;5.23;;
35462;SDS011;21578;47.892;9.970;2023-06-22T01:04:42;10.50;;;4.93;;
35462;SDS011;21578;47.892;9.970;2023-06-22T01:09:31;10.93;;;5.33;;
35462;SDS011;21578;47.892;9.970;2023-06-22T01:14:23;8.27;;;5.13;;
35462;SDS011;21578;47.892;9.970;2023-06-22T01:19:18;8.53;;;5.00;;
35462;SDS011;21578;47.892;9.970;2023-06-22T01:24:15;9.20;;;5.10;;
35462;SDS011;21578;47.892;9.970;2023-06-22T01:29:10;10.00;;;4.83;;
35462;SDS011;21578;47.892;9.970;2023-06-22T01:33:59;11.77;;;4.60;;
35462;SDS011;21578;47.892;9.970;2023-06-22T01:38:54;8.97;;;4.80;;
35462;SDS011;21578;47.892;9.970;2023-06-22T01:43:44;8.00;;;4.43;;
35462;SDS011;21578;47.892;9.970;2023-06-22T01:48:33;9.07;;;4.87;;
35462;SDS011;21578;47.892;9.970;2023-06-22T01:53:20;10.00;;;5.33;;
35462;SDS011;21578;47.892;9.970;2023-06-22T01:58:08;8.73;;;5.23;;
35462;SDS011;21578;47.892;9.970;2023-06-22T02:02:56;10.60;;;5.40;;
35462;SDS011;21578;47.892;9.970;2023-06-22T02:07:49;9.60;;;5.17;;
35462;SDS011;21578;47.892;9.970;2023-06-22T02:12:42;10.13;;;4.93;;
35462;SDS011;21578;47.892;9.970;2023-06-22T02:17:30;9.60;;;5.03;;
35462;SDS011;21578;47.892;9.970;2023-06-22T02:22:18;10.73;;;5.97;;
35462;SDS011;21578;47.892;9.970;2023-06-22T02:27:07;10.67;;;5.70;;
35462;SDS011;21578;47.892;9.970;2023-06-22T02:31:54;8.87;;;5.67;;
35462;SDS011;21578;47.892;9.970;2023-06-22T02:36:41;9.03;;;5.90;;
35462;SDS011;21578;47.892;9.970;2023-06-22T02:41:35;8.83;;;5.33;;
35462;SDS011;21578;47.892;9.970;2023-06-22T02:46:24;9.63;;;5.40;;
35462;SDS011;21578;47.892;9.970;2023-06-22T02:51:11;12.17;;;5.50;;
35462;SDS011;21578;47.892;9.970;2023-06-22T02:55:57;9.10;;;5.63;;
35462;SDS011;21578;47.892;9.970;2023-06-22T03:00:46;10.73;;;6.17;;
35462;SDS011;21578;47.892;9.970;2023-06-22T03:05:34;10.63;;;5.97;;
35462;SDS011;21578;47.892;9.970;2023-06-22T03:10:21;8.37;;;5.90;;
35462;SDS011;21578;47.892;9.970;2023-06-22T03:15:08;10.67;;;5.80;;
35462;SDS011;21578;47.892;9.970;2023-06-22T03:19:57;8.23;;;6.23;;
35462;SDS011;21578;47.892;9.970;2023-06-22T03:24:46;8.97;;;5.70;;
35462;SDS011;21578;47.892;9.970;2023-06-22T03:29:33;10.47;;;5.83;;
35462;SDS011;21578;47.892;9.970;2023-06-22T03:34:20;13.10;;;6.60;;
35462;SDS011;21578;47.892;9.970;2023-06-22T03:39:07;7.77;;;5.70;;
35462;SDS011;21578;47.892;9.970;2023-06-22T03:43:55;12.70;;;6.40;;
35462;SDS011;21578;47.892;9.970;2023-06-22T03:48:42;11.87;;;6.30;;
35462;SDS011;21578;47.892;9.970;2023-06-22T03:53:29;12.00;;;6.30;;
35462;SDS011;21578;47.892;9.970;2023-06-22T03:58:16;9.43;;;6.17;;
35462;SDS011;21578;47.892;9.970;2023-06-22T04:03:05;8.93;;;6.03;;
35462;SDS011;21578;47.892;9.970;2023-06-22T04:07:52;14.43;;;6.27;;
35462;SDS011;21578;47.892;9.970;2023-06-22T04:12:39;10.50;;;6.00;;
35462;SDS011;21578;47.892;9.970;2023-06-22T04:17:26;10.53;;;5.87;;
35462;SDS011;21578;47.892;9.970;2023-06-22T04:22:14;10.17;;;6.60;;
35462;SDS011;21578;47.892;9.970;2023-06-22T04:27:01;12.17;;;7.10;;
35462;SDS011;21578;47.892;9.970;2023-06-22T04:31:48;11.73;;;7.03;;
35462;SDS011;21578;47.892;9.970;2023-06-22T04:36:36;13.33;;;7.03;;
35462;SDS011;21578;47.892;9.970;2023-06-22T04:41:25;11.00;;;6.00;;
35462;SDS011;21578;47.892;9.970;2023-06-22T04:46:12;12.17;;;7.03;;
35462;SDS011;21578;47.892;9.970;2023-06-22T04:50:59;10.17;;;6.50;;
35462;SDS011;21578;47.892;9.970;2023-06-22T04:55:48;12.07;;;6.80;;
35462;SDS011;21578;47.892;9.970;2023-06-22T05:00:39;10.67;;;6.43;;
35462;SDS011;21578;47.892;9.970;2023-06-22T05:05:26;11.77;;;6.53;;
35462;SDS011;21578;47.892;9.970;2023-06-22T05:10:13;9.13;;;6.00;;
35462;SDS011;21578;47.892;9.970;2023-06-22T05:15:00;9.50;;;5.97;;
35462;SDS011;21578;47.892;9.970;2023-06-22T05:19:49;9.53;;;6.73;;
35462;SDS011;21578;47.892;9.970;2023-06-22T05:24:36;10.30;;;6.13;;
35462;SDS011;21578;47.892;9.970;2023-06-22T05:29:22;8.60;;;6.57;;
35462;SDS011;21578;47.892;9.970;2023-06-22T05:34:09;12.03;;;6.80;;
35462;SDS011;21578;47.892;9.970;2023-06-22T05:38:57;9.93;;;7.13;;
35462;SDS011;21578;47.892;9.970;2023-06-22T05:43:44;11.57;;;6.30;;
35462;SDS011;21578;47.892;9.970;2023-06-22T05:48:31;9.97;;;6.77;;
35462;SDS011;21578;47.892;9.970;2023-06-22T05:53:18;12.57;;;7.00;;
35462;SDS011;21578;47.892;9.970;2023-06-22T05:58:06;11.87;;;6.80;;
35462;SDS011;21578;47.892;9.970;2023-06-22T06:02:53;9.80;;;7.33;;
35462;SDS011;21578;47.892;9.970;2023-06-22T06:07:40;11.50;;;7.10;;
35462;SDS011;21578;47.892;9.970;2023-06-22T06:12:27;8.07;;;6.60;;
35462;SDS011;21578;47.892;9.970;2023-06-22T06:17:15;10.40;;;6.43;;
35462;SDS011;21578;47.892;9.970;2023-06-22T06:22:02;12.00;;;7.37;;
35462;SDS011;21578;47.892;9.970;2023-06-22T06:26:51;12.93;;;6.30;;
35462;SDS011;21578;47.892;9.970;2023-06-22T06:31:38;10.10;;;7.17;;
35462;SDS011;21578;47.892;9.970;2023-06-22T06:36:27;12.63;;;6.90;;
35462;SDS011;21578;47.892;9.970;2023-06-22T06:41:14;12.80;;;6.77;;
35462;SDS011;21578;47.892;9.970;2023-06-22T06:46:01;11.23;;;6.73;;
35462;SDS011;21578;47.892;9.970;2023-06-22T06:51:04;11.13;;;6.67;;
35462;SDS011;21578;47.892;9.970;2023-06-22T06:55:55;12.43;;;7.23;;
35462;SDS011;21578;47.892;9.970;2023-06-22T07:00:42;9.30;;;6.53;;
35462;SDS011;21578;47.892;9.970;2023-06-22T07:05:29;13.93;;;7.77;;
35462;SDS011;21578;47.892;9.970;2023-06-22T07:10:16;9.43;;;6.27;;
35462;SDS011;21578;47.892;9.970;2023-06-22T07:15:08;12.13;;;6.90;;
35462;SDS011;21578;47.892;9.970;2023-06-22T07:19:57;14.77;;;6.50;;
35462;SDS011;21578;47.892;9.970;2023-06-22T07:24:44;10.87;;;6.13;;
35462;SDS011;21578;47.892;9.970;2023-06-22T07:29:31;14.27;;;7.17;;
35462;SDS011;21578;47.892;9.970;2023-06-22T07:34:19;11.83;;;6.23;;
35462;SDS011;21578;47.892;9.970;2023-06-22T07:39:06;11.70;;;6.10;;
35462;SDS011;21578;47.892;9.970;2023-06-22T07:43:53;12.07;;;5.90;;
35462;SDS011;21578;47.892;9.970;2023-06-22T07:48:40;11.77;;;5.70;;
35462;SDS011;21578;47.892;9.970;2023-06-22T07:53:30;13.47;;;5.80;;
35462;SDS011;21578;47.892;9.970;2023-06-22T07:58:17;10.37;;;5.83;;
35462;SDS011;21578;47.892;9.970;2023-06-22T08:03:05;13.43;;;5.83;;
35462;SDS011;21578;47.892;9.970;2023-06-22T08:07:53;12.37;;;5.20;;
35462;SDS011;21578;47.892;9.970;2023-06-22T08:12:41;12.87;;;4.93;;
35462;SDS011;21578;47.892;9.970;2023-06-22T08:17:28;10.13;;;5.00;;
35462;SDS011;21578;47.892;9.970;2023-06-22T08:22:16;12.10;;;4.83;;
35462;SDS011;21578;47.892;9.970;2023-06-22T08:27:04;10.07;;;5.00;;
35462;SDS011;21578;47.892;9.970;2023-06-22T08:31:55;8.57;;;4.80;;
35462;SDS011;21578;47.892;9.970;2023-06-22T08:36:42;13.27;;;5.43;;
35462;SDS011;21578;47.892;9.970;2023-06-22T08:41:37;17.37;;;6.73;;
35462;SDS011;21578;47.892;9.970;2023-06-22T08:46:30;14.03;;;5.47;;
35462;SDS011;21578;47.892;9.970;2023-06-22T08:51:19;12.23;;;5.13;;
35462;SDS011;21578;47.892;9.970;2023-06-22T08:56:09;16.80;;;6.40;;
35462;SDS011;21578;47.892;9.970;2023-06-22T09:00:55;12.30;;;5.13;;
35462;SDS011;21578;47.892;9.970;2023-06-22T09:05:46;11.60;;;4.77;;
35462;SDS011;21578;47.892;9.970;2023-06-22T09:10:34;12.53;;;5.63;;
35462;SDS011;21578;47.892;9.970;2023-06-22T09:15:21;11.00;;;4.97;;
35462;SDS011;21578;47.892;9.970;2023-06-22T09:20:08;11.55;;;4.90;;
35462;SDS011;21578;47.892;9.970;2023-06-22T09:24:56;11.07;;;4.88;;
35462;SDS011;21578;47.892;9.970;2023-06-22T09:29:46;10.68;;;4.30;;
35462;SDS011;21578;47.892;9.970;2023-06-22T09:34:33;13.43;;;4.63;;
35462;SDS011;21578;47.892;9.970;2023-06-22T09:39:19;14.57;;;5.32;;
35462;SDS011;21578;47.892;9.970;2023-06-22T09:44:06;14.60;;;5.00;;
35462;SDS011;21578;47.892;9.970;2023-06-22T09:48:55;13.20;;;6.32;;
35462;SDS011;21578;47.892;9.970;2023-06-22T09:53:43;16.80;;;7.97;;
35462;SDS011;21578;47.892;9.970;2023-06-22T09:58:30;12.90;;;8.63;;
35462;SDS011;21578;47.892;9.970;2023-06-22T10:03:17;13.15;;;7.88;;
35462;SDS011;21578;47.892;9.970;2023-06-22T10:08:05;14.03;;;8.20;;
35462;SDS011;21578;47.892;9.970;2023-06-22T10:12:55;10.93;;;7.27;;
35462;SDS011;21578;47.892;9.970;2023-06-22T10:17:43;13.73;;;7.40;;
35462;SDS011;21578;47.892;9.970;2023-06-22T10:22:30;11.97;;;7.63;;
35462;SDS011;21578;47.892;9.970;2023-06-22T10:27:18;13.47;;;7.53;;
35462;SDS011;21578;47.892;9.970;2023-06-22T10:32:05;12.73;;;7.23;;
35462;SDS011;21578;47.892;9.970;2023-06-22T10:36:53;14.57;;;7.43;;
35462;SDS011;21578;47.892;9.970;2023-06-22T10:41:40;15.20;;;6.60;;
35462;SDS011;21578;47.892;9.970;2023-06-22T10:46:28;12.68;;;6.78;;
35462;SDS011;21578;47.892;9.970;2023-06-22T10:51:15;10.80;;;6.75;;
35462;SDS011;21578;47.892;9.970;2023-06-22T10:56:02;12.88;;;6.80;;
35462;SDS011;21578;47.892;9.970;2023-06-22T11:00:49;12.68;;;5.90;;
35462;SDS011;21578;47.892;9.970;2023-06-22T11:05:37;11.95;;;6.03;;
35462;SDS011;21578;47.892;9.970;2023-06-22T11:10:24;10.18;;;6.47;;
35462;SDS011;21578;47.892;9.970;2023-06-22T11:15:12;11.10;;;4.85;;
35462;SDS011;21578;47.892;9.970;2023-06-22T11:19:58;14.15;;;4.60;;
35462;SDS011;21578;47.892;9.970;2023-06-22T11:24:47;11.32;;;4.65;;
35462;SDS011;21578;47.892;9.970;2023-06-22T11:29:34;13.82;;;5.22;;
35462;SDS011;21578;47.892;9.970;2023-06-22T11:34:20;15.55;;;5.07;;
35462;SDS011;21578;47.892;9.970;2023-06-22T11:39:08;18.25;;;4.65;;
35462;SDS011;21578;47.892;9.970;2023-06-22T11:43:57;16.08;;;4.72;;
35462;SDS011;21578;47.892;9.970;2023-06-22T11:48:44;12.85;;;4.97;;
35462;SDS011;21578;47.892;9.970;2023-06-22T11:53:31;14.90;;;5.00;;
35462;SDS011;21578;47.892;9.970;2023-06-22T11:58:18;10.45;;;4.50;;
35462;SDS011;21578;47.892;9.970;2023-06-22T12:03:06;13.60;;;4.85;;
35462;SDS011;21578;47.892;9.970;2023-06-22T12:07:53;12.25;;;4.80;;
35462;SDS011;21578;47.892;9.970;2023-06-22T12:12:41;12.52;;;4.88;;
35462;SDS011;21578;47.892;9.970;2023-06-22T12:17:28;11.82;;;4.55;;
35462;SDS011;21578;47.892;9.970;2023-06-22T12:22:16;14.82;;;5.05;;
35462;SDS011;21578;47.892;9.970;2023-06-22T12:27:03;11.82;;;4.30;;
35462;SDS011;21578;47.892;9.970;2023-06-22T12:31:53;13.38;;;4.65;;
35462;SDS011;21578;47.892;9.970;2023-06-22T12:36:40;12.68;;;4.22;;
35462;SDS011;21578;47.892;9.970;2023-06-22T12:41:28;15.35;;;5.55;;
35462;SDS011;21578;47.892;9.970;2023-06-22T12:46:15;15.65;;;4.70;;
35462;SDS011;21578;47.892;9.970;2023-06-22T12:51:02;11.10;;;4.85;;
35462;SDS011;21578;47.892;9.970;2023-06-22T12:55:49;12.77;;;5.03;;
35462;SDS011;21578;47.892;9.970;2023-06-22T13:00:37;17.45;;;5.20;;
35462;SDS011;21578;47.892;9.970;2023-06-22T13:05:25;12.98;;;4.70;;
35462;SDS011;21578;47.892;9.970;2023-06-22T13:10:12;10.93;;;5.05;;
35462;SDS011;21578;47.892;9.970;2023-06-22T13:14:58;11.40;;;5.15;;
35462;SDS011;21578;47.892;9.970;2023-06-22T13:19:47;12.10;;;4.65;;
35462;SDS011;21578;47.892;9.970;2023-06-22T13:24:36;13.30;;;4.93;;
35462;SDS011;21578;47.892;9.970;2023-06-22T13:29:23;15.43;;;4.85;;
35462;SDS011;21578;47.892;9.970;2023-06-22T13:34:10;12.25;;;5.00;;
35462;SDS011;21578;47.892;9.970;2023-06-22T13:38:58;10.25;;;5.03;;
35462;SDS011;21578;47.892;9.970;2023-06-22T13:43:45;7.95;;;4.82;;
35462;SDS011;21578;47.892;9.970;2023-06-22T13:48:32;13.63;;;5.93;;
35462;SDS011;21578;47.892;9.970;2023-06-22T13:53:19;14.88;;;5.93;;
35462;SDS011;21578;47.892;9.970;2023-06-22T13:58:07;14.60;;;6.32;;
35462;SDS011;21578;47.892;9.970;2023-06-22T14:02:54;12.68;;;5.88;;
35462;SDS011;21578;47.892;9.970;2023-06-22T14:07:41;8.63;;;5.28;;
35462;SDS011;21578;47.892;9.970;2023-06-22T14:12:28;12.25;;;5.30;;
35462;SDS011;21578;47.892;9.970;2023-06-22T14:17:16;13.25;;;5.47;;
35462;SDS011;21578;47.892;9.970;2023-06-22T14:22:08;10.93;;;5.50;;
35462;SDS011;21578;47.892;9.970;2023-06-22T14:26:55;11.93;;;5.53;;
35462;SDS011;21578;47.892;9.970;2023-06-22T14:31:44;10.25;;;5.00;;
35462;SDS011;21578;47.892;9.970;2023-06-22T14:36:32;12.35;;;5.15;;
35462;SDS011;21578;47.892;9.970;2023-06-22T14:41:19;13.90;;;5.43;;
35462;SDS011;21578;47.892;9.970;2023-06-22T14:46:06;12.60;;;4.90;;
35462;SDS011;21578;47.892;9.970;2023-06-22T14:50:56;16.50;;;5.15;;
35462;SDS011;21578;47.892;9.970;2023-06-22T14:55:46;13.20;;;5.18;;
35462;SDS011;21578;47.892;9.970;2023-06-22T15:00:33;15.18;;;5.35;;
35462;SDS011;21578;47.892;9.970;2023-06-22T15:05:20;15.00;;;5.93;;
35462;SDS011;21578;47.892;9.970;2023-06-22T15:10:09;12.05;;;4.93;;
35462;SDS011;21578;47.892;9.970;2023-06-22T15:15:08;9.10;;;5.07;;
35462;SDS011;21578;47.892;9.970;2023-06-22T15:19:57;9.25;;;4.78;;
35462;SDS011;21578;47.892;9.970;2023-06-22T15:24:44;10.30;;;4.32;;
35462;SDS011;21578;47.892;9.970;2023-06-22T15:29:33;11.32;;;4.43;;
35462;SDS011;21578;47.892;9.970;2023-06-22T15:34:22;13.77;;;5.22;;
35462;SDS011;21578;47.892;9.970;2023-06-22T15:39:12;11.20;;;4.97;;
35462;SDS011;21578;47.892;9.970;2023-06-22T15:44:03;13.18;;;5.85;;
35462;SDS011;21578;47.892;9.970;2023-06-22T15:48:50;12.02;;;5.10;;
35462;SDS011;21578;47.892;9.970;2023-06-22T15:53:38;13.00;;;5.15;;
35462;SDS011;21578;47.892;9.970;2023-06-22T15:58:26;12.50;;;4.65;;
35462;SDS011;21578;47.892;9.970;2023-06-22T16:03:21;13.75;;;6.15;;
35462;SDS011;21578;47.892;9.970;2023-06-22T16:08:09;9.60;;;5.10;;
35462;SDS011;21578;47.892;9.970;2023-06-22T16:12:58;14.80;;;5.53;;
35462;SDS011;21578;47.892;9.970;2023-06-22T16:17:45;12.43;;;5.50;;
35462;SDS011;21578;47.892;9.970;2023-06-22T16:22:32;13.13;;;5.70;;
35462;SDS011;21578;47.892;9.970;2023-06-22T16:27:19;16.23;;;5.80;;
35462;SDS011;21578;47.892;9.970;2023-06-22T16:32:08;13.05;;;5.50;;
35462;SDS011;21578;47.892;9.970;2023-06-22T16:36:55;10.63;;;5.38;;
35462;SDS011;21578;47.892;9.970;2023-06-22T16:41:45;11.43;;;5.40;;
35462;SDS011;21578;47.892;9.970;2023-06-22T16:46:33;9.90;;;4.80;;
35462;SDS011;21578;47.892;9.970;2023-06-22T16:51:26;10.43;;;4.72;;
35462;SDS011;21578;47.892;9.970;2023-06-22T16:56:14;8.77;;;4.70;;
35462;SDS011;21578;47.892;9.970;2023-06-22T17:01:02;8.45;;;4.18;;
35462;SDS011;21578;47.892;9.970;2023-06-22T17:05:55;7.35;;;4.10;;
35462;SDS011;21578;47.892;9.970;2023-06-22T17:10:44;11.45;;;4.53;;
35462;SDS011;21578;47.892;9.970;2023-06-22T17:15:31;7.80;;;4.35;;
35462;SDS011;21578;47.892;9.970;2023-06-22T17:20:22;11.57;;;4.57;;
35462;SDS011;21578;47.892;9.970;2023-06-22T17:25:09;10.73;;;4.38;;
35462;SDS011;21578;47.892;9.970;2023-06-22T17:30:07;10.93;;;3.85;;
35462;SDS011;21578;47.892;9.970;2023-06-22T17:34:54;12.20;;;4.15;;
35462;SDS011;21578;47.892;9.970;2023-06-22T17:39:44;12.48;;;4.32;;
35462;SDS011;21578;47.892;9.970;2023-06-22T17:44:38;12.20;;;5.10;;
35462;SDS011;21578;47.892;9.970;2023-06-22T17:49:28;11.43;;;4.20;;
35462;SDS011;21578;47.892;9.970;2023-06-22T17:54:16;11.53;;;4.00;;
35462;SDS011;21578;47.892;9.970;2023-06-22T17:59:03;10.53;;;3.60;;
35462;SDS011;21578;47.892;9.970;2023-06-22T18:03:51;7.67;;;3.20;;
35462;SDS011;21578;47.892;9.970;2023-06-22T18:08:47;10.67;;;3.30;;
35462;SDS011;21578;47.892;9.970;2023-06-22T18:13:36;11.40;;;3.77;;
35462;SDS011;21578;47.892;9.970;2023-06-22T18:18:23;7.83;;;3.43;;
35462;SDS011;21578;47.892;9.970;2023-06-22T18:23:11;6.83;;;3.20;;
35462;SDS011;21578;47.892;9.970;2023-06-22T18:28:00;10.17;;;3.57;;
35462;SDS011;21578;47.892;9.970;2023-06-22T18:32:47;9.23;;;4.17;;
35462;SDS011;21578;47.892;9.970;2023-06-22T18:37:35;8.60;;;4.20;;
35462;SDS011;21578;47.892;9.970;2023-06-22T18:42:25;14.03;;;4.00;;
35462;SDS011;21578;47.892;9.970;2023-06-22T18:47:19;14.20;;;4.40;;
35462;SDS011;21578;47.892;9.970;2023-06-22T18:52:14;10.63;;;4.00;;
35462;SDS011;21578;47.892;9.970;2023-06-22T18:57:12;9.57;;;4.03;;
35462;SDS011;21578;47.892;9.970;2023-06-22T19:02:00;11.03;;;3.90;;
35462;SDS011;21578;47.892;9.970;2023-06-22T19:06:57;9.60;;;4.10;;
35462;SDS011;21578;47.892;9.970;2023-06-22T19:11:44;8.43;;;4.30;;
35462;SDS011;21578;47.892;9.970;2023-06-22T19:16:31;6.53;;;4.07;;
35462;SDS011;21578;47.892;9.970;2023-06-22T19:21:20;6.50;;;3.80;;
35462;SDS011;21578;47.892;9.970;2023-06-22T19:26:10;7.83;;;3.63;;
35462;SDS011;21578;47.892;9.970;2023-06-22T19:30:58;7.37;;;3.90;;
35462;SDS011;21578;47.892;9.970;2023-06-22T19:35:46;8.93;;;4.17;;
35462;SDS011;21578;47.892;9.970;2023-06-22T19:45:44;7.00;;;3.87;;
35462;SDS011;21578;47.892;9.970;2023-06-22T19:50:32;7.87;;;2.90;;
35462;SDS011;21578;47.892;9.970;2023-06-22T19:55:19;9.00;;;3.33;;
35462;SDS011;21578;47.892;9.970;2023-06-22T20:00:07;3.67;;;2.77;;
35462;SDS011;21578;47.892;9.970;2023-06-22T20:05:02;6.50;;;3.00;;
35462;SDS011;21578;47.892;9.970;2023-06-22T20:10:04;4.40;;;2.10;;
35462;SDS011;21578;47.892;9.970;2023-06-22T20:14:53;4.27;;;2.27;;
35462;SDS011;21578;47.892;9.970;2023-06-22T20:19:40;4.13;;;2.17;;
35462;SDS011;21578;47.892;9.970;2023-06-22T20:24:31;4.47;;;1.93;;
35462;SDS011;21578;47.892;9.970;2023-06-22T20:29:24;6.33;;;2.23;;
35462;SDS011;21578;47.892;9.970;2023-06-22T20:34:12;3.07;;;1.47;;
35462;SDS011;21578;47.892;9.970;2023-06-22T20:38:58;2.87;;;1.50;;
35462;SDS011;21578;47.892;9.970;2023-06-22T20:43:53;2.50;;;1.40;;
35462;SDS011;21578;47.892;9.970;2023-06-22T20:48:40;3.97;;;1.30;;
35462;SDS011;21578;47.892;9.970;2023-06-22T20:53:27;5.33;;;1.57;;
35462;SDS011;21578;47.892;9.970;2023-06-22T20:58:14;2.90;;;1.40;;
35462;SDS011;21578;47.892;9.970;2023-06-22T21:03:02;2.13;;;1.17;;
35462;SDS011;21578;47.892;9.970;2023-06-22T21:07:50;2.23;;;1.10;;
35462;SDS011;21578;47.892;9.970;2023-06-22T21:12:37;3.87;;;1.40;;
35462;SDS011;21578;47.892;9.970;2023-06-22T21:17:24;2.63;;;1.30;;
35462;SDS011;21578;47.892;9.970;2023-06-22T21:22:12;4.13;;;1.20;;
35462;SDS011;21578;47.892;9.970;2023-06-22T21:27:01;5.50;;;1.23;;
35462;SDS011;21578;47.892;9.970;2023-06-22T21:31:52;3.37;;;1.20;;
35462;SDS011;21578;47.892;9.970;2023-06-22T21:36:39;3.93;;;1.10;;
35462;SDS011;21578;47.892;9.970;2023-06-22T21:41:27;1.73;;;0.83;;
35462;SDS011;21578;47.892;9.970;2023-06-22T21:46:14;2.07;;;0.87;;
35462;SDS011;21578;47.892;9.970;2023-06-22T21:51:01;3.30;;;0.90;;
35462;SDS011;21578;47.892;9.970;2023-06-22T21:55:48;1.70;;;0.80;;
35462;SDS011;21578;47.892;9.970;2023-06-22T22:00:36;1.90;;;0.87;;
35462;SDS011;21578;47.892;9.970;2023-06-22T22:05:23;2.83;;;0.97;;
35462;SDS011;21578;47.892;9.970;2023-06-22T22:10:10;7.80;;;1.33;;
35462;SDS011;21578;47.892;9.970;2023-06-22T22:14:57;2.13;;;1.20;;
35462;SDS011;21578;47.892;9.970;2023-06-22T22:19:46;3.77;;;1.00;;
35462;SDS011;21578;47.892;9.970;2023-06-22T22:24:32;4.70;;;1.20;;
35462;SDS011;21578;47.892;9.970;2023-06-22T22:29:19;2.20;;;1.00;;
35462;SDS011;21578;47.892;9.970;2023-06-22T22:34:07;2.60;;;0.97;;
35462;SDS011;21578;47.892;9.970;2023-06-22T22:38:56;1.03;;;0.93;;
35462;SDS011;21578;47.892;9.970;2023-06-22T22:43:43;0.87;;;0.80;;
35462;SDS011;21578;47.892;9.970;2023-06-22T22:48:30;2.10;;;1.30;;
35462;SDS011;21578;47.892;9.970;2023-06-22T22:53:17;1.60;;;0.90;;
35462;SDS011;21578;47.892;9.970;2023-06-22T22:58:05;1.10;;;1.00;;
35462;SDS011;21578;47.892;9.970;2023-06-22T23:02:52;2.17;;;1.00;;
35462;SDS011;21578;47.892;9.970;2023-06-22T23:07:39;2.40;;;0.80;;
35462;SDS011;21578;47.892;9.970;2023-06-22T23:12:27;1.83;;;1.13;;
35462;SDS011;21578;47.892;9.970;2023-06-22T23:17:15;0.87;;;0.80;;
35462;SDS011;21578;47.892;9.970;2023-06-22T23:22:02;0.97;;;0.90;;
35462;SDS011;21578;47.892;9.970;2023-06-22T23:26:50;1.20;;;1.00;;
35462;SDS011;21578;47.892;9.970;2023-06-22T23:31:36;1.60;;;1.00;;
35462;SDS011;21578;47.892;9.970;2023-06-22T23:36:25;0.97;;;0.83;;
35462;SDS011;21578;47.892;9.970;2023-06-22T23:41:12;1.10;;;1.00;;
35462;SDS011;21578;47.892;9.970;2023-06-22T23:45:59;1.03;;;0.80;;
35462;SDS011;21578;47.892;9.970;2023-06-22T23:50:46;1.63;;;1.03;;
35462;SDS011;21578;47.892;9.970;2023-06-22T23:55:37;2.47;;;1.30;;
